Sturgis, Michigan
Current Conditions -  °F | °C
As of 1:35 PM on Thursday 30 Oct 2014 (Local Time) from KIRS Reporting Station
Broken Clouds Broken Clouds  
Wind Chill: 46°   Ceiling: 4500
Heat Index: 48°   Visibility: 10mi
Dew Point: 37°   Wind: 5mph
Humidity: 66%   Direction: 230°SW
Pressure: 30.1"   Gusts: NA
Location:  41.8°N, 85.42°W
Report Text: KIRS 301735Z AUTO 23004KT 10SM BKN045 09/03 A3010 RMK AO2
Loading
Personal Weather Stations






























Interactive Weather Map
Tropical Storm Tracking
New forecast layout! Learn more

10-Day Weather Forecast

Advertisements
Track Severe Weather on mobile